Time;durP1;ratioP1;P1;durP2;ratioP2;P2;SDS_P1;SDS_P2;PMS_P1;PMS_P2;Temp;Humidity;BMP_temperature;BMP_pressure;BME280_temperature;BME280_humidity;BME280_pressure;Samples;Min_cycle;Max_cycle;Signal;HPM_P1;HPM_P2
2023/10/26 00:01:36;;;;;;;0.88;0.88;;;;;;;;;;5045309;28;20513;-61
2023/10/26 00:04:02;;;;;;;0.70;0.70;;;;;;;;;;5045377;28;20310;-61
2023/10/26 00:06:28;;;;;;;1.30;1.20;;;;;;;;;;5044209;28;20049;-59
2023/10/26 00:08:54;;;;;;;1.00;1.00;;;;;;;;;;5044321;28;20131;-61
2023/10/26 00:11:20;;;;;;;1.48;1.38;;;;;;;;;;5045415;28;20056;-61
2023/10/26 00:13:46;;;;;;;1.55;1.45;;;;;;;;;;5043306;28;20057;-61
2023/10/26 00:16:12;;;;;;;1.75;1.65;;;;;;;;;;5042903;28;20045;-61
2023/10/26 00:18:38;;;;;;;1.90;1.80;;;;;;;;;;5043481;28;20052;-61
2023/10/26 00:21:04;;;;;;;1.70;1.60;;;;;;;;;;5043274;28;20434;-61
2023/10/26 00:23:30;;;;;;;1.40;1.30;;;;;;;;;;5044123;28;20484;-61
2023/10/26 00:25:57;;;;;;;1.35;1.25;;;;;;;;;;5044566;28;20574;-61
2023/10/26 00:28:23;;;;;;;1.17;1.13;;;;;;;;;;5043520;28;20045;-61
2023/10/26 00:30:49;;;;;;;1.45;1.38;;;;;;;;;;5045517;28;20052;-61
2023/10/26 00:33:15;;;;;;;1.20;1.10;;;;;;;;;;5043526;28;20044;-61
2023/10/26 00:35:41;;;;;;;1.48;1.20;;;;;;;;;;5044080;28;20063;-61
2023/10/26 00:38:07;;;;;;;1.25;1.17;;;;;;;;;;5043975;28;20047;-61
2023/10/26 00:40:33;;;;;;;1.13;1.02;;;;;;;;;;5044343;28;20052;-61
2023/10/26 00:43:04;;;;;;;1.58;1.48;;;;;;;;;;5042986;28;20411;-61
2023/10/26 00:45:31;;;;;;;1.80;1.70;;;;;;;;;;5043456;28;20044;-61
2023/10/26 00:47:58;;;;;;;2.42;2.22;;;;;;;;;;5043786;28;20040;-61
2023/10/26 00:50:24;;;;;;;3.25;2.95;;;;;;;;;;5041974;28;20377;-61
2023/10/26 00:52:50;;;;;;;4.13;3.72;;;;;;;;;;5043636;28;20306;-61
2023/10/26 00:55:16;;;;;;;4.60;4.20;;;;;;;;;;5042908;28;20053;-62
2023/10/26 00:57:42;;;;;;;5.05;4.60;;;;;;;;;;5042137;28;20136;-61
2023/10/26 01:00:09;;;;;;;5.18;4.53;;;;;;;;;;5043167;28;20131;-61
2023/10/26 01:02:36;;;;;;;4.63;4.22;;;;;;;;;;5043574;28;20049;-61
2023/10/26 01:05:03;;;;;;;4.75;4.35;;;;;;;;;;5044088;28;20415;-61
2023/10/26 01:07:29;;;;;;;4.43;4.03;;;;;;;;;;5043251;28;20134;-61
2023/10/26 01:09:56;;;;;;;3.38;3.10;;;;;;;;;;5044543;28;20488;-61
2023/10/26 01:12:22;;;;;;;2.83;2.60;;;;;;;;;;5043155;28;20518;-61
2023/10/26 01:14:48;;;;;;;3.03;2.75;;;;;;;;;;5041873;28;20322;-61
2023/10/26 01:17:14;;;;;;;2.22;2.03;;;;;;;;;;5042418;28;20562;-61
2023/10/26 01:19:41;;;;;;;2.30;2.10;;;;;;;;;;5042633;28;20045;-61
2023/10/26 01:22:07;;;;;;;1.80;1.70;;;;;;;;;;5043195;28;20063;-61
2023/10/26 01:24:33;;;;;;;2.00;1.80;;;;;;;;;;5042496;28;20051;-61
2023/10/26 01:26:59;;;;;;;1.92;1.83;;;;;;;;;;5042458;28;20049;-62
2023/10/26 01:29:25;;;;;;;2.38;2.17;;;;;;;;;;5041915;28;20048;-61
2023/10/26 01:31:51;;;;;;;1.77;1.67;;;;;;;;;;5042568;28;20106;-61
2023/10/26 01:34:17;;;;;;;2.40;2.20;;;;;;;;;;5043197;28;20094;-61
2023/10/26 01:36:43;;;;;;;2.25;2.05;;;;;;;;;;5040365;28;20049;-62
2023/10/26 01:39:09;;;;;;;1.50;1.40;;;;;;;;;;5043301;28;20060;-61
2023/10/26 01:41:35;;;;;;;1.77;1.67;;;;;;;;;;5042632;28;20107;-61
2023/10/26 01:44:01;;;;;;;1.50;1.40;;;;;;;;;;5042783;28;20045;-61
2023/10/26 01:46:27;;;;;;;1.58;1.48;;;;;;;;;;5042302;28;20088;-61
2023/10/26 01:48:54;;;;;;;1.63;1.52;;;;;;;;;;5043014;28;20056;-61
2023/10/26 01:51:20;;;;;;;2.10;1.83;;;;;;;;;;5043128;28;20501;-61
2023/10/26 01:53:46;;;;;;;1.90;1.80;;;;;;;;;;5041297;28;20056;-61
2023/10/26 01:56:12;;;;;;;2.10;2.00;;;;;;;;;;5042782;28;20077;-61
2023/10/26 01:58:38;;;;;;;2.38;2.17;;;;;;;;;;5044323;28;20092;-61
2023/10/26 02:01:05;;;;;;;2.25;2.13;;;;;;;;;;5041091;28;20083;-61
2023/10/26 02:03:31;;;;;;;3.13;2.92;;;;;;;;;;5042401;28;20057;-61
2023/10/26 02:05:57;;;;;;;3.42;3.13;;;;;;;;;;5042472;28;20053;-61
2023/10/26 02:08:23;;;;;;;3.53;3.22;;;;;;;;;;5042495;28;20055;-61
2023/10/26 02:10:49;;;;;;;3.13;2.90;;;;;;;;;;5042369;28;20061;-61
2023/10/26 02:13:15;;;;;;;3.00;2.80;;;;;;;;;;5041797;28;20280;-61
2023/10/26 02:15:41;;;;;;;4.32;3.92;;;;;;;;;;5041046;28;20107;-62
2023/10/26 02:18:07;;;;;;;3.10;2.90;;;;;;;;;;5044774;28;20044;-61
2023/10/26 02:20:33;;;;;;;2.83;2.63;;;;;;;;;;5047527;28;21381;-61
2023/10/26 02:22:59;;;;;;;2.75;2.55;;;;;;;;;;5047639;28;20126;-61
2023/10/26 02:25:25;;;;;;;3.35;3.10;;;;;;;;;;5046820;28;20052;-61
2023/10/26 02:27:51;;;;;;;3.47;3.17;;;;;;;;;;5047770;28;20119;-61
2023/10/26 02:30:17;;;;;;;3.78;3.40;;;;;;;;;;5045485;28;20418;-60
2023/10/26 02:32:43;;;;;;;4.32;3.67;;;;;;;;;;5046868;28;20455;-61
2023/10/26 02:35:09;;;;;;;4.22;3.83;;;;;;;;;;5046962;28;20041;-60
2023/10/26 02:37:38;;;;;;;3.90;3.60;;;;;;;;;;5046979;28;20049;-61
2023/10/26 02:40:10;;;;;;;3.70;3.40;;;;;;;;;;5047444;28;20033;-61
2023/10/26 02:42:38;;;;;;;3.30;3.10;;;;;;;;;;5044360;28;20076;-60
2023/10/26 02:45:04;;;;;;;3.15;2.95;;;;;;;;;;5045934;28;20533;-61
2023/10/26 02:47:31;;;;;;;3.55;3.28;;;;;;;;;;5046391;28;20057;-61
2023/10/26 02:49:57;;;;;;;3.20;2.90;;;;;;;;;;5045181;28;20076;-61
2023/10/26 02:52:24;;;;;;;3.92;3.55;;;;;;;;;;5045939;28;20084;-61
2023/10/26 02:54:50;;;;;;;3.50;3.20;;;;;;;;;;5044742;28;20094;-61
2023/10/26 02:57:16;;;;;;;3.20;2.90;;;;;;;;;;5044424;28;20060;-61
2023/10/26 02:59:42;;;;;;;3.22;3.03;;;;;;;;;;5045287;28;20135;-61
2023/10/26 03:02:08;;;;;;;3.47;3.17;;;;;;;;;;5046472;28;20153;-61
2023/10/26 03:04:38;;;;;;;3.58;3.28;;;;;;;;;;5044245;28;20222;-61
2023/10/26 03:07:04;;;;;;;3.42;3.13;;;;;;;;;;5043696;28;20500;-61
2023/10/26 03:09:30;;;;;;;3.35;3.05;;;;;;;;;;5061958;28;20075;-61
2023/10/26 03:11:56;;;;;;;3.33;3.13;;;;;;;;;;5045672;28;20561;-61
2023/10/26 03:14:22;;;;;;;3.45;3.15;;;;;;;;;;5046719;28;20267;-61
2023/10/26 03:16:48;;;;;;;3.35;3.08;;;;;;;;;;5045489;28;20251;-61
2023/10/26 03:19:14;;;;;;;2.90;2.65;;;;;;;;;;5044669;28;20384;-61
2023/10/26 03:21:40;;;;;;;2.78;2.58;;;;;;;;;;5046688;28;20040;-61
2023/10/26 03:24:07;;;;;;;2.80;2.55;;;;;;;;;;5046680;28;20047;-61
2023/10/26 03:26:33;;;;;;;2.60;2.40;;;;;;;;;;5044677;28;20078;-61
2023/10/26 03:28:59;;;;;;;2.38;2.28;;;;;;;;;;5045999;28;20057;-61
2023/10/26 03:31:25;;;;;;;2.08;1.98;;;;;;;;;;5043380;28;20053;-61
2023/10/26 03:33:51;;;;;;;2.50;2.30;;;;;;;;;;5044922;28;20045;-60
2023/10/26 03:36:18;;;;;;;2.80;2.60;;;;;;;;;;5046277;28;20064;-60
2023/10/26 03:38:45;;;;;;;3.30;3.00;;;;;;;;;;5043950;28;20068;-61
2023/10/26 03:41:11;;;;;;;3.53;3.25;;;;;;;;;;5044895;28;20052;-61
2023/10/26 03:43:37;;;;;;;4.25;3.85;;;;;;;;;;5044505;28;20049;-61
2023/10/26 03:46:04;;;;;;;3.63;3.33;;;;;;;;;;5045442;28;20128;-60
2023/10/26 03:48:31;;;;;;;3.35;3.05;;;;;;;;;;5044954;28;20053;-61
2023/10/26 03:50:57;;;;;;;4.22;3.92;;;;;;;;;;5044529;28;20137;-61
2023/10/26 03:53:23;;;;;;;4.22;3.92;;;;;;;;;;5045818;28;20037;-61
2023/10/26 03:55:49;;;;;;;2.83;2.63;;;;;;;;;;5043566;28;20048;-60
2023/10/26 03:58:15;;;;;;;3.58;3.28;;;;;;;;;;5045480;28;20431;-61
2023/10/26 04:00:41;;;;;;;3.10;2.80;;;;;;;;;;5043772;28;20055;-61
2023/10/26 04:03:07;;;;;;;3.33;3.13;;;;;;;;;;5044454;28;20155;-61
2023/10/26 04:05:34;;;;;;;2.88;2.67;;;;;;;;;;5044441;28;20111;-61
2023/10/26 04:08:04;;;;;;;3.60;3.33;;;;;;;;;;5043269;28;20052;-61
2023/10/26 04:10:30;;;;;;;3.60;3.30;;;;;;;;;;5045502;28;20049;-61
2023/10/26 04:12:56;;;;;;;3.15;2.92;;;;;;;;;;5047586;28;20086;-60
2023/10/26 04:15:22;;;;;;;2.90;2.70;;;;;;;;;;5045377;28;20087;-61
2023/10/26 04:17:48;;;;;;;3.10;2.90;;;;;;;;;;5042722;28;20447;-60
2023/10/26 04:20:14;;;;;;;2.80;2.60;;;;;;;;;;5045192;28;20052;-61
2023/10/26 04:22:40;;;;;;;3.13;2.83;;;;;;;;;;5044131;28;20065;-61
2023/10/26 04:25:06;;;;;;;2.90;2.70;;;;;;;;;;5044331;28;20049;-60
2023/10/26 04:27:33;;;;;;;2.88;2.65;;;;;;;;;;5043274;28;20056;-61
2023/10/26 04:29:59;;;;;;;3.35;3.05;;;;;;;;;;5044210;28;20044;-61
2023/10/26 04:32:25;;;;;;;3.55;3.25;;;;;;;;;;5044250;28;20037;-61
2023/10/26 04:34:51;;;;;;;3.55;3.25;;;;;;;;;;5045138;28;20069;-60
2023/10/26 04:37:17;;;;;;;3.85;3.45;;;;;;;;;;5043615;28;20127;-61
2023/10/26 04:39:45;;;;;;;3.60;3.30;;;;;;;;;;5043809;28;20069;-60
2023/10/26 04:42:12;;;;;;;3.80;3.50;;;;;;;;;;5043293;28;20123;-61
2023/10/26 04:44:39;;;;;;;3.47;3.17;;;;;;;;;;5044851;28;20590;-60
2023/10/26 04:47:05;;;;;;;3.97;3.58;;;;;;;;;;5045172;28;20036;-61
2023/10/26 04:49:31;;;;;;;3.53;3.22;;;;;;;;;;5042368;28;20040;-61
2023/10/26 04:51:57;;;;;;;4.15;3.78;;;;;;;;;;5044939;28;20052;-61
2023/10/26 04:54:24;;;;;;;3.55;3.25;;;;;;;;;;5043323;28;20045;-60
2023/10/26 04:56:50;;;;;;;2.78;2.53;;;;;;;;;;5042964;28;20040;-61
2023/10/26 04:59:16;;;;;;;3.20;2.90;;;;;;;;;;5043095;28;20063;-60
2023/10/26 05:01:42;;;;;;;2.78;2.58;;;;;;;;;;5044711;28;20049;-60
2023/10/26 05:04:09;;;;;;;3.35;3.05;;;;;;;;;;5042190;28;20123;-60
2023/10/26 05:06:35;;;;;;;4.18;3.83;;;;;;;;;;5042939;28;20149;-61
2023/10/26 05:09:01;;;;;;;4.10;3.80;;;;;;;;;;5042314;28;20132;-61
2023/10/26 05:11:27;;;;;;;4.03;3.55;;;;;;;;;;5043659;28;20059;-61
2023/10/26 05:13:53;;;;;;;4.57;4.18;;;;;;;;;;5043515;28;20427;-60
2023/10/26 05:16:19;;;;;;;4.30;3.90;;;;;;;;;;5042965;28;20545;-61
2023/10/26 05:18:45;;;;;;;3.70;3.40;;;;;;;;;;5042219;28;20489;-61
2023/10/26 05:21:11;;;;;;;3.85;3.42;;;;;;;;;;5043225;28;20052;-61
2023/10/26 05:23:39;;;;;;;4.18;3.88;;;;;;;;;;5043548;28;20037;-60
2023/10/26 05:26:05;;;;;;;3.83;3.53;;;;;;;;;;5042220;28;20475;-61
2023/10/26 05:28:31;;;;;;;3.80;3.50;;;;;;;;;;5044958;28;20048;-61
2023/10/26 05:30:57;;;;;;;3.33;3.13;;;;;;;;;;5041714;28;20376;-61
2023/10/26 05:33:23;;;;;;;3.83;3.53;;;;;;;;;;5043174;28;20057;-60
2023/10/26 05:35:49;;;;;;;3.90;3.60;;;;;;;;;;5042351;28;20483;-61
2023/10/26 05:38:18;;;;;;;3.50;3.20;;;;;;;;;;5043595;28;20041;-61
2023/10/26 05:40:52;;;;;;;4.13;3.80;;;;;;;;;;5042257;28;20049;-60
2023/10/26 05:43:18;;;;;;;3.95;3.65;;;;;;;;;;5042921;28;20491;-61
2023/10/26 05:45:44;;;;;;;4.38;3.97;;;;;;;;;;5041619;28;20127;-60
2023/10/26 05:48:10;;;;;;;4.18;3.78;;;;;;;;;;5041440;28;20132;-61
2023/10/26 05:50:41;;;;;;;4.13;3.83;;;;;;;;;;5042169;28;20060;-61
2023/10/26 05:53:07;;;;;;;4.97;4.35;;;;;;;;;;5039900;28;20053;-60
2023/10/26 05:55:33;;;;;;;4.40;4.00;;;;;;;;;;5047601;28;20040;-60
2023/10/26 05:57:59;;;;;;;4.53;4.13;;;;;;;;;;5047210;28;20053;-60
2023/10/26 06:00:25;;;;;;;4.15;3.75;;;;;;;;;;5046553;28;20359;-61
2023/10/26 06:02:52;;;;;;;4.65;4.25;;;;;;;;;;5046460;28;20080;-60
2023/10/26 06:05:18;;;;;;;4.78;4.38;;;;;;;;;;5048253;28;20106;-61
2023/10/26 06:07:44;;;;;;;6.15;5.55;;;;;;;;;;5047179;28;20435;-60
2023/10/26 06:10:11;;;;;;;5.03;4.60;;;;;;;;;;5045581;28;20048;-60
2023/10/26 06:12:38;;;;;;;5.30;4.90;;;;;;;;;;5046952;28;20051;-60
2023/10/26 06:15:04;;;;;;;5.28;4.70;;;;;;;;;;5045240;28;20052;-60
2023/10/26 06:17:30;;;;;;;5.10;4.60;;;;;;;;;;5047138;28;20048;-60
2023/10/26 06:19:56;;;;;;;4.70;4.25;;;;;;;;;;5046683;28;20061;-60
2023/10/26 06:22:22;;;;;;;4.10;3.70;;;;;;;;;;5045665;28;20377;-61
2023/10/26 06:24:48;;;;;;;4.20;3.88;;;;;;;;;;5047588;28;20056;-60
2023/10/26 06:27:14;;;;;;;4.05;3.70;;;;;;;;;;5045587;28;20045;-61
2023/10/26 06:29:41;;;;;;;4.25;3.95;;;;;;;;;;5047604;28;20036;-61
2023/10/26 06:32:07;;;;;;;4.25;3.85;;;;;;;;;;5046969;28;20053;-61
2023/10/26 06:34:33;;;;;;;4.10;3.70;;;;;;;;;;5041504;28;20041;-61
2023/10/26 06:36:59;;;;;;;3.92;3.42;;;;;;;;;;5043286;28;20045;-61
2023/10/26 06:39:25;;;;;;;3.50;3.17;;;;;;;;;;5046271;28;20053;-61
2023/10/26 06:41:51;;;;;;;4.63;4.22;;;;;;;;;;5040621;28;20146;-61
2023/10/26 06:44:17;;;;;;;4.53;4.05;;;;;;;;;;5047257;28;20089;-61
2023/10/26 06:46:43;;;;;;;3.75;3.42;;;;;;;;;;5045100;28;20044;-61
2023/10/26 06:49:09;;;;;;;3.88;3.50;;;;;;;;;;5046201;28;20095;-61
2023/10/26 06:51:36;;;;;;;3.75;3.45;;;;;;;;;;5047267;28;20136;-61
2023/10/26 06:54:02;;;;;;;3.15;2.90;;;;;;;;;;5047346;28;20041;-62
2023/10/26 06:56:28;;;;;;;3.20;2.90;;;;;;;;;;5044803;28;20044;-61
2023/10/26 06:58:54;;;;;;;3.50;3.20;;;;;;;;;;5046399;28;20053;-61
2023/10/26 07:01:20;;;;;;;2.85;2.65;;;;;;;;;;5043879;28;20044;-61
2023/10/26 07:03:45;;;;;;;2.92;2.63;;;;;;;;;;5045639;28;20045;-60
2023/10/26 07:06:12;;;;;;;3.58;3.10;;;;;;;;;;5045633;28;20517;-61
2023/10/26 07:08:37;;;;;;;3.85;3.55;;;;;;;;;;5041955;28;20055;-61
2023/10/26 07:11:07;;;;;;;3.15;2.90;;;;;;;;;;5046346;28;20040;-61
2023/10/26 07:13:33;;;;;;;3.55;2.92;;;;;;;;;;5045410;28;20069;-61
2023/10/26 07:16:00;;;;;;;2.00;1.90;;;;;;;;;;5045239;28;20081;-61
2023/10/26 07:18:30;;;;;;;2.83;2.33;;;;;;;;;;5045335;28;20052;-61
2023/10/26 07:20:56;;;;;;;3.00;2.70;;;;;;;;;;5045859;28;20355;-61
2023/10/26 07:23:22;;;;;;;2.38;2.17;;;;;;;;;;5044923;28;20079;-61
2023/10/26 07:25:48;;;;;;;3.00;2.80;;;;;;;;;;5044884;28;20547;-61
2023/10/26 07:28:14;;;;;;;3.35;3.05;;;;;;;;;;5045272;28;20556;-61
2023/10/26 07:30:41;;;;;;;3.97;3.67;;;;;;;;;;5044531;28;20663;-61
2023/10/26 07:33:07;;;;;;;4.38;3.97;;;;;;;;;;5043482;28;20078;-61
2023/10/26 07:35:42;;;;;;;4.85;4.45;;;;;;;;;;5043520;28;20056;-61
2023/10/26 07:38:09;;;;;;;6.68;5.80;;;;;;;;;;5041497;28;20049;-60
2023/10/26 07:40:35;;;;;;;5.88;5.35;;;;;;;;;;5044554;28;20067;-61
2023/10/26 07:43:01;;;;;;;6.35;5.75;;;;;;;;;;5043803;28;20132;-61
2023/10/26 07:45:27;;;;;;;6.82;6.10;;;;;;;;;;5044962;28;20139;-61
2023/10/26 07:47:53;;;;;;;7.25;6.55;;;;;;;;;;5044448;28;20047;-61
2023/10/26 07:50:20;;;;;;;6.30;5.70;;;;;;;;;;5043171;28;20053;-61
2023/10/26 07:52:46;;;;;;;5.70;5.20;;;;;;;;;;5042332;28;20084;-61
2023/10/26 07:55:13;;;;;;;5.63;5.10;;;;;;;;;;5045025;28;20053;-61
2023/10/26 07:57:41;;;;;;;5.68;5.18;;;;;;;;;;5042675;28;20055;-61
2023/10/26 08:00:08;;;;;;;8.02;7.25;;;;;;;;;;5044079;28;20049;-61
2023/10/26 08:02:34;;;;;;;7.28;6.57;;;;;;;;;;5044691;28;20094;-61
2023/10/26 08:05:00;;;;;;;8.30;7.45;;;;;;;;;;5043081;28;20120;-61
2023/10/26 08:07:26;;;;;;;7.55;6.72;;;;;;;;;;5043769;28;20466;-61
2023/10/26 08:09:52;;;;;;;7.40;6.70;;;;;;;;;;5042700;28;20055;-61
2023/10/26 08:12:19;;;;;;;7.35;6.45;;;;;;;;;;5044855;28;20048;-61
2023/10/26 08:14:45;;;;;;;5.78;5.28;;;;;;;;;;5042313;28;20091;-61
2023/10/26 08:17:11;;;;;;;7.22;6.53;;;;;;;;;;5040034;28;20076;-64
2023/10/26 08:19:40;;;;;;;7.28;6.57;;;;;;;;;;5038983;28;20071;-62
2023/10/26 08:22:07;;;;;;;7.15;6.45;;;;;;;;;;5039679;28;20335;-62
2023/10/26 08:24:33;;;;;;;7.35;6.65;;;;;;;;;;5045326;28;20055;-62
2023/10/26 08:26:59;;;;;;;9.05;7.85;;;;;;;;;;5041306;28;20053;-60
2023/10/26 08:29:26;;;;;;;10.00;8.48;;;;;;;;;;5042068;28;20067;-61
2023/10/26 08:31:52;;;;;;;8.98;7.97;;;;;;;;;;5043067;28;20049;-62
2023/10/26 08:34:18;;;;;;;10.35;9.27;;;;;;;;;;5041633;28;20060;-61
2023/10/26 08:36:44;;;;;;;9.73;8.73;;;;;;;;;;5040405;28;20298;-62
2023/10/26 08:39:10;;;;;;;10.38;7.70;;;;;;;;;;5042324;28;20049;-62
2023/10/26 08:41:36;;;;;;;8.00;7.20;;;;;;;;;;5039792;28;20136;-61
2023/10/26 08:44:03;;;;;;;6.88;6.22;;;;;;;;;;5042833;28;20120;-61
2023/10/26 08:46:30;;;;;;;6.88;6.18;;;;;;;;;;5042027;28;20041;-62
2023/10/26 08:48:58;;;;;;;7.85;6.35;;;;;;;;;;5042838;28;20049;-61
2023/10/26 08:51:24;;;;;;;7.55;6.75;;;;;;;;;;5044281;28;20982;-61
2023/10/26 08:53:50;;;;;;;7.13;6.45;;;;;;;;;;5042554;28;20529;-60
2023/10/26 08:56:20;;;;;;;5.85;5.25;;;;;;;;;;5043683;28;20139;-61
2023/10/26 08:58:47;;;;;;;8.40;6.18;;;;;;;;;;5042488;28;20446;-60
2023/10/26 09:01:15;;;;;;;6.38;5.78;;;;;;;;;;5044449;28;20057;-61
2023/10/26 09:03:41;;;;;;;6.72;5.63;;;;;;;;;;5039584;28;20450;-61
2023/10/26 09:06:08;;;;;;;6.28;5.68;;;;;;;;;;5042326;28;20102;-61
2023/10/26 09:08:34;;;;;;;9.07;7.20;;;;;;;;;;5039157;28;20068;-61
2023/10/26 09:11:01;;;;;;;7.63;6.93;;;;;;;;;;5041572;28;20080;-61
2023/10/26 09:13:28;;;;;;;7.65;6.95;;;;;;;;;;5039146;28;20502;-61
2023/10/26 09:15:58;;;;;;;9.57;8.50;;;;;;;;;;5037769;28;20057;-64
2023/10/26 09:18:24;;;;;;;10.40;9.25;;;;;;;;;;5038305;28;20491;-64
2023/10/26 09:21:06;;;;;;;12.05;9.23;;;;;;;;;;5040444;28;20062;-64
2023/10/26 09:23:34;;;;;;;8.98;8.07;;;;;;;;;;5052387;28;20055;-64
2023/10/26 09:26:02;;;;;;;10.90;9.10;;;;;;;;;;5039913;28;20053;-65
2023/10/26 09:28:28;;;;;;;8.82;7.90;;;;;;;;;;5041727;28;20052;-65
2023/10/26 09:31:02;;;;;;;10.07;8.23;;;;;;;;;;5040778;28;20056;-67
2023/10/26 09:33:28;;;;;;;7.60;6.78;;;;;;;;;;5041413;28;20501;-66
2023/10/26 09:35:54;;;;;;;11.18;9.38;;;;;;;;;;5032995;28;20052;-66
2023/10/26 09:38:34;;;;;;;10.95;9.77;;;;;;;;;;5042584;28;20505;-66
2023/10/26 09:41:00;;;;;;;11.98;10.75;;;;;;;;;;5043058;28;20055;-66
2023/10/26 09:43:26;;;;;;;12.15;10.93;;;;;;;;;;5041866;28;20053;-65
2023/10/26 09:45:52;;;;;;;10.85;9.63;;;;;;;;;;5042042;28;20037;-65
2023/10/26 09:48:19;;;;;;;10.00;8.20;;;;;;;;;;5042478;28;20384;-66
2023/10/26 09:50:45;;;;;;;7.95;7.13;;;;;;;;;;5042585;28;20044;-66
2023/10/26 09:53:12;;;;;;;7.53;6.70;;;;;;;;;;5040315;28;20100;-66
2023/10/26 09:55:38;;;;;;;6.03;5.53;;;;;;;;;;5034158;28;20355;-66
2023/10/26 09:58:06;;;;;;;6.43;4.93;;;;;;;;;;5041700;28;20052;-66
2023/10/26 10:00:35;;;;;;;5.70;5.20;;;;;;;;;;5042525;28;20067;-65
2023/10/26 10:03:14;;;;;;;9.48;6.93;;;;;;;;;;5042425;28;20044;-66
2023/10/26 10:05:41;;;;;;;6.53;5.68;;;;;;;;;;5043250;28;20079;-66
2023/10/26 10:08:07;;;;;;;5.05;4.60;;;;;;;;;;5044997;28;20045;-66
2023/10/26 10:10:34;;;;;;;6.38;5.70;;;;;;;;;;5043121;28;20081;-66
2023/10/26 10:13:00;;;;;;;6.13;5.50;;;;;;;;;;5042470;28;20103;-65
2023/10/26 10:15:34;;;;;;;8.07;6.18;;;;;;;;;;5043148;28;20151;-66
2023/10/26 10:18:01;;;;;;;6.00;5.18;;;;;;;;;;5036090;28;20051;-66
2023/10/26 10:20:29;;;;;;;7.47;6.78;;;;;;;;;;5042507;28;20051;-66
2023/10/26 10:22:58;;;;;;;6.18;5.57;;;;;;;;;;5044787;28;20049;-66
2023/10/26 10:25:44;;;;;;;5.50;4.95;;;;;;;;;;5042686;28;20075;-66
2023/10/26 10:28:11;;;;;;;6.85;5.95;;;;;;;;;;5033321;28;20048;-65
2023/10/26 10:30:47;;;;;;;8.68;7.78;;;;;;;;;;5043671;28;20053;-66
2023/10/26 10:33:21;;;;;;;10.55;7.97;;;;;;;;;;5041488;28;20048;-66
2023/10/26 10:35:51;;;;;;;10.25;9.05;;;;;;;;;;5042452;28;20041;-66
2023/10/26 10:38:18;;;;;;;10.88;9.45;;;;;;;;;;5043776;28;20080;-66
2023/10/26 10:40:59;;;;;;;10.13;9.07;;;;;;;;;;5046262;28;20051;-66
2023/10/26 10:43:40;;;;;;;7.57;6.82;;;;;;;;;;5039193;28;20304;-65
2023/10/26 10:46:15;;;;;;;8.40;7.45;;;;;;;;;;5047323;28;20056;-66
2023/10/26 10:49:00;;;;;;;9.18;8.27;;;;;;;;;;5045373;28;20503;-66
2023/10/26 10:51:32;;;;;;;9.48;8.48;;;;;;;;;;5047893;28;20045;-66
2023/10/26 10:53:58;;;;;;;11.40;10.20;;;;;;;;;;5046612;28;20111;-65
2023/10/26 10:56:25;;;;;;;10.80;9.65;;;;;;;;;;5046411;28;20384;-66
2023/10/26 10:58:52;;;;;;;9.32;8.20;;;;;;;;;;5046138;28;20997;-66
2023/10/26 11:01:21;;;;;;;8.98;7.97;;;;;;;;;;5047651;28;20071;-66
2023/10/26 11:03:48;;;;;;;8.05;7.25;;;;;;;;;;5039174;28;20047;-66
2023/10/26 11:06:15;;;;;;;10.35;9.25;;;;;;;;;;5046961;28;20096;-66
2023/10/26 11:08:41;;;;;;;8.80;8.00;;;;;;;;;;5046405;28;20053;-66
2023/10/26 11:11:07;;;;;;;9.90;8.75;;;;;;;;;;5047347;28;20549;-66
2023/10/26 11:13:33;;;;;;;10.15;9.15;;;;;;;;;;5045381;28;20049;-66
2023/10/26 11:15:59;;;;;;;9.00;8.10;;;;;;;;;;5046836;28;20044;-66
2023/10/26 11:18:25;;;;;;;8.23;7.35;;;;;;;;;;5047050;28;20052;-66
2023/10/26 11:20:51;;;;;;;6.80;6.15;;;;;;;;;;5046880;28;20346;-65
2023/10/26 11:23:21;;;;;;;7.65;6.88;;;;;;;;;;5044794;28;20059;-65
2023/10/26 11:25:47;;;;;;;9.00;8.10;;;;;;;;;;5045480;28;20472;-66
2023/10/26 11:28:14;;;;;;;9.52;8.48;;;;;;;;;;5046585;28;20124;-66
2023/10/26 11:30:50;;;;;;;11.98;10.70;;;;;;;;;;5045923;28;20111;-66
2023/10/26 11:33:32;;;;;;;12.68;11.13;;;;;;;;;;5037263;28;20415;-66
2023/10/26 11:35:58;;;;;;;11.02;9.82;;;;;;;;;;5047628;28;20045;-65
2023/10/26 11:38:24;;;;;;;12.25;10.43;;;;;;;;;;5041287;28;20501;-66
2023/10/26 11:40:50;;;;;;;12.20;10.90;;;;;;;;;;5044974;28;20051;-66
2023/10/26 11:43:16;;;;;;;9.35;8.40;;;;;;;;;;5045603;28;20356;-65
2023/10/26 11:45:49;;;;;;;10.73;7.80;;;;;;;;;;5042887;28;20037;-67
2023/10/26 11:48:26;;;;;;;7.45;6.75;;;;;;;;;;5040145;28;20455;-64
2023/10/26 11:50:53;;;;;;;7.63;6.82;;;;;;;;;;5038133;28;20044;-64
2023/10/26 11:53:22;;;;;;;6.15;5.55;;;;;;;;;;5044767;28;20044;-64
2023/10/26 11:55:48;;;;;;;6.90;5.72;;;;;;;;;;5039885;28;20415;-65
2023/10/26 11:58:14;;;;;;;7.18;6.47;;;;;;;;;;5039316;28;20054;-64
2023/10/26 12:00:42;;;;;;;6.68;6.07;;;;;;;;;;5034299;28;20044;-64
2023/10/26 12:03:08;;;;;;;6.28;5.68;;;;;;;;;;5038790;28;20614;-65
2023/10/26 12:05:34;;;;;;;8.38;7.28;;;;;;;;;;5036404;28;20128;-65
2023/10/26 12:08:00;;;;;;;7.78;6.97;;;;;;;;;;5037070;28;20061;-65
2023/10/26 12:10:27;;;;;;;7.47;6.75;;;;;;;;;;5028918;28;20049;-64
2023/10/26 12:12:53;;;;;;;7.82;7.00;;;;;;;;;;5036091;28;20063;-65
2023/10/26 12:15:21;;;;;;;14.15;11.18;;;;;;;;;;5040541;28;20148;-65
2023/10/26 12:17:50;;;;;;;11.30;9.68;;;;;;;;;;5039674;28;20136;-65
2023/10/26 12:20:16;;;;;;;9.02;8.13;;;;;;;;;;5037126;28;20535;-65
2023/10/26 12:22:42;;;;;;;8.77;7.88;;;;;;;;;;5033595;28;20636;-64
2023/10/26 12:25:10;;;;;;;7.22;6.53;;;;;;;;;;5055877;28;20044;-65
2023/10/26 12:27:36;;;;;;;7.78;6.97;;;;;;;;;;5055105;28;20115;-64
2023/10/26 12:30:02;;;;;;;6.40;5.85;;;;;;;;;;5039891;28;20037;-65
2023/10/26 12:32:30;;;;;;;7.60;6.85;;;;;;;;;;5038790;28;20227;-65
2023/10/26 12:34:56;;;;;;;8.73;7.82;;;;;;;;;;5039044;28;20717;-65
2023/10/26 12:37:22;;;;;;;7.32;6.50;;;;;;;;;;5041118;28;20065;-64
2023/10/26 12:39:48;;;;;;;7.43;6.72;;;;;;;;;;5043501;28;20060;-64
2023/10/26 12:42:14;;;;;;;7.60;6.80;;;;;;;;;;5044353;28;20527;-64
2023/10/26 12:44:40;;;;;;;8.40;7.25;;;;;;;;;;5059273;28;20084;-64
2023/10/26 12:47:06;;;;;;;7.05;6.45;;;;;;;;;;5041686;28;20049;-64
2023/10/26 12:49:34;;;;;;;10.07;9.07;;;;;;;;;;5042149;28;20041;-64
2023/10/26 12:52:00;;;;;;;9.88;8.35;;;;;;;;;;5043205;28;20134;-64
2023/10/26 12:54:27;;;;;;;8.07;7.35;;;;;;;;;;5042467;28;20475;-64
2023/10/26 12:56:53;;;;;;;7.68;6.97;;;;;;;;;;5042163;28;20088;-64
2023/10/26 12:59:19;;;;;;;8.75;7.85;;;;;;;;;;5042121;28;20045;-64
2023/10/26 13:01:45;;;;;;;8.20;6.88;;;;;;;;;;5037448;28;20056;-63
2023/10/26 13:04:11;;;;;;;9.35;8.38;;;;;;;;;;5042322;28;20045;-63
2023/10/26 13:06:37;;;;;;;12.27;11.07;;;;;;;;;;5042581;28;20416;-63
2023/10/26 13:09:04;;;;;;;12.00;10.75;;;;;;;;;;5041779;28;20049;-63
2023/10/26 13:11:30;;;;;;;13.38;11.95;;;;;;;;;;5039173;28;20045;-64
2023/10/26 13:13:56;;;;;;;12.68;11.43;;;;;;;;;;5041222;28;20590;-63
2023/10/26 13:16:22;;;;;;;12.00;10.73;;;;;;;;;;5041338;28;20135;-66
2023/10/26 13:18:49;;;;;;;11.20;10.07;;;;;;;;;;5041914;28;20832;-63
2023/10/26 13:21:15;;;;;;;11.63;10.43;;;;;;;;;;5043247;28;20047;-63
2023/10/26 13:23:41;;;;;;;9.85;8.85;;;;;;;;;;5039891;28;20511;-63
2023/10/26 13:26:07;;;;;;;10.23;9.20;;;;;;;;;;5039013;28;20107;-64
2023/10/26 13:28:33;;;;;;;8.73;7.93;;;;;;;;;;5036275;28;20073;-64
2023/10/26 13:30:59;;;;;;;8.45;7.65;;;;;;;;;;5041458;28;20045;-63
2023/10/26 13:33:26;;;;;;;9.82;8.25;;;;;;;;;;5053408;28;20503;-63
2023/10/26 13:35:53;;;;;;;8.88;8.07;;;;;;;;;;5036556;28;20445;-63
2023/10/26 13:38:19;;;;;;;8.45;7.65;;;;;;;;;;5038106;28;20053;-63
2023/10/26 13:40:45;;;;;;;11.48;10.27;;;;;;;;;;5038947;28;20504;-63
2023/10/26 13:43:15;;;;;;;13.25;11.32;;;;;;;;;;5038805;28;20267;-63
2023/10/26 13:45:41;;;;;;;11.05;9.98;;;;;;;;;;5036473;28;20075;-63
2023/10/26 13:48:08;;;;;;;8.82;7.93;;;;;;;;;;5035512;28;20523;-63
2023/10/26 13:50:34;;;;;;;7.72;6.93;;;;;;;;;;5040085;28;20048;-63
2023/10/26 13:53:01;;;;;;;8.90;8.00;;;;;;;;;;5039716;28;20076;-63
2023/10/26 13:55:27;;;;;;;8.30;7.47;;;;;;;;;;5041693;28;20467;-63
2023/10/26 13:57:53;;;;;;;8.45;7.65;;;;;;;;;;5039063;28;20195;-63
2023/10/26 14:00:19;;;;;;;7.95;6.93;;;;;;;;;;5039684;28;20054;-63
2023/10/26 14:02:46;;;;;;;8.80;7.90;;;;;;;;;;5042517;28;20044;-63
2023/10/26 14:05:12;;;;;;;8.30;7.50;;;;;;;;;;5038896;28;20507;-64
2023/10/26 14:07:38;;;;;;;7.63;6.80;;;;;;;;;;5051915;28;20057;-63
2023/10/26 14:10:06;;;;;;;8.50;7.55;;;;;;;;;;5054838;28;20041;-64
2023/10/26 14:12:32;;;;;;;8.18;7.15;;;;;;;;;;5052800;28;20056;-63
2023/10/26 14:14:59;;;;;;;10.35;9.25;;;;;;;;;;5056890;28;20067;-63
2023/10/26 14:17:25;;;;;;;8.77;7.57;;;;;;;;;;5041797;28;21144;-63
2023/10/26 14:19:51;;;;;;;8.10;7.28;;;;;;;;;;5042980;28;20514;-63
2023/10/26 14:22:17;;;;;;;10.20;7.38;;;;;;;;;;5042372;28;20136;-63
2023/10/26 14:24:43;;;;;;;8.00;7.20;;;;;;;;;;5040809;28;20135;-64
2023/10/26 14:27:09;;;;;;;7.25;6.55;;;;;;;;;;5058889;28;20052;-63
2023/10/26 14:29:35;;;;;;;7.47;6.40;;;;;;;;;;5035627;28;20435;-64
2023/10/26 14:32:01;;;;;;;6.40;5.82;;;;;;;;;;5035228;28;20128;-63
2023/10/26 14:34:27;;;;;;;6.63;5.95;;;;;;;;;;5035789;28;20069;-63
2023/10/26 14:36:53;;;;;;;6.88;6.15;;;;;;;;;;5039218;28;20056;-63
2023/10/26 14:39:20;;;;;;;6.57;5.88;;;;;;;;;;5042305;28;20404;-63